Time;durP1;ratioP1;P1;durP2;ratioP2;P2;SDS_P1;SDS_P2;PMS_P1;PMS_P2;Temp;Humidity;BMP_temperature;BMP_pressure;BME280_temperature;BME280_humidity;BME280_pressure;Samples;Min_cycle;Max_cycle;Signal;HPM_P1;HPM_P2
2022/10/08 00:01:09;;;;;;;9.73;3.10;;;;;;;10.34;100.00;101620.81;5015176;28;20026;-72
2022/10/08 00:03:37;;;;;;;15.02;3.63;;;;;;;10.45;100.00;101632.84;5014598;28;20036;-72
2022/10/08 00:06:04;;;;;;;11.80;3.63;;;;;;;10.45;100.00;101630.25;5014631;28;20102;-72
2022/10/08 00:08:32;;;;;;;14.65;3.40;;;;;;;10.48;100.00;101622.41;5013413;28;20474;-72
2022/10/08 00:11:01;;;;;;;8.88;3.00;;;;;;;10.50;100.00;101619.78;5015118;28;20030;-72
2022/10/08 00:13:28;;;;;;;8.50;3.17;;;;;;;10.55;100.00;101621.44;5013407;28;20018;-72
2022/10/08 00:15:53;;;;;;;9.35;3.05;;;;;;;10.61;100.00;101630.09;5015210;28;20116;-72
2022/10/08 00:18:19;;;;;;;15.63;3.25;;;;;;;10.66;100.00;101620.47;5014788;28;20030;-72
2022/10/08 00:20:45;;;;;;;10.85;3.08;;;;;;;10.67;100.00;101612.63;5000221;28;20017;-72
2022/10/08 00:23:11;;;;;;;12.73;3.58;;;;;;;10.80;100.00;101621.19;5014733;28;20034;-71
2022/10/08 00:25:42;;;;;;;11.13;3.28;;;;;;;10.85;100.00;101624.56;5012966;28;20018;-72
2022/10/08 00:28:09;;;;;;;11.82;3.30;;;;;;;10.93;100.00;101627.13;5018252;28;20477;-72
2022/10/08 00:30:39;;;;;;;12.23;2.88;;;;;;;10.98;100.00;101620.94;5006377;28;20168;-72
2022/10/08 00:33:06;;;;;;;11.60;3.50;;;;;;;11.04;100.00;101620.00;5013898;28;20120;-72
2022/10/08 00:35:39;;;;;;;14.43;3.17;;;;;;;11.05;100.00;101620.84;5027492;28;20022;-72
2022/10/08 00:38:06;;;;;;;20.10;3.80;;;;;;;11.12;100.00;101625.13;5014599;28;20033;-72
2022/10/08 00:40:40;;;;;;;14.75;3.08;;;;;;;11.11;100.00;101616.41;5011538;28;20057;-72
2022/10/08 00:43:11;;;;;;;14.95;3.03;;;;;;;11.16;100.00;101619.00;5013897;28;20109;-72
2022/10/08 00:45:37;;;;;;;12.18;3.20;;;;;;;11.16;100.00;101613.75;5013899;28;20050;-72
2022/10/08 00:48:03;;;;;;;9.98;3.28;;;;;;;11.19;100.00;101619.81;5014017;28;20101;-73
2022/10/08 00:50:33;;;;;;;11.77;3.47;;;;;;;11.25;100.00;101624.94;5013635;28;20381;-72
2022/10/08 00:53:02;;;;;;;12.82;3.70;;;;;;;11.30;100.00;101629.22;5023059;28;20051;-72
2022/10/08 00:55:29;;;;;;;13.40;3.45;;;;;;;11.28;100.00;101623.16;5012222;28;20028;-72
2022/10/08 00:58:00;;;;;;;18.65;3.60;;;;;;;11.33;100.00;101622.22;5013829;28;20114;-72
2022/10/08 01:00:27;;;;;;;10.90;3.42;;;;;;;11.38;100.00;101627.38;5007554;28;20033;-72
2022/10/08 01:02:53;;;;;;;8.77;2.85;;;;;;;11.36;100.00;101627.41;5017203;28;20057;-72
2022/10/08 01:05:29;;;;;;;9.68;3.00;;;;;;;11.41;100.00;101638.66;5012993;28;20029;-72
2022/10/08 01:08:11;;;;;;;13.93;3.00;;;;;;;11.38;100.00;101630.84;5013189;28;20084;-72
2022/10/08 01:11:10;;;;;;;12.02;3.03;;;;;;;11.41;100.00;101646.50;5013620;28;20548;-72
2022/10/08 01:13:56;;;;;;;11.73;3.30;;;;;;;11.41;100.00;101645.59;5013340;28;20022;-72
2022/10/08 01:16:40;;;;;;;10.70;3.28;;;;;;;11.43;100.00;101647.31;5011826;28;20030;-72
2022/10/08 01:19:25;;;;;;;10.93;2.97;;;;;;;11.35;100.00;101645.72;5000582;28;20025;-72
2022/10/08 01:22:07;;;;;;;12.43;3.40;;;;;;;11.18;100.00;101632.84;5013661;28;20123;-72
2022/10/08 01:27:41;;;;;;;12.05;3.20;;;;;;;11.23;100.00;101657.16;5013242;28;20045;-72
2022/10/08 01:30:10;;;;;;;17.38;4.10;;;;;;;11.24;100.00;101653.66;5012967;28;20057;-72
2022/10/08 01:32:42;;;;;;;12.43;3.45;;;;;;;11.23;100.00;101641.50;5012011;28;20486;-72
2022/10/08 01:35:18;;;;;;;11.48;3.30;;;;;;;11.21;100.00;101643.25;5013498;28;20018;-72
2022/10/08 01:37:44;;;;;;;9.82;3.10;;;;;;;11.23;100.00;101644.13;5012414;28;20033;-72
2022/10/08 01:40:20;;;;;;;10.77;3.00;;;;;;;11.15;100.00;101640.72;5013474;28;20046;-72
2022/10/08 01:42:47;;;;;;;10.85;3.55;;;;;;;11.12;100.00;101653.84;5013048;28;20026;-72
2022/10/08 01:45:18;;;;;;;13.65;3.63;;;;;;;10.99;100.00;101648.78;5012675;28;20536;-72
2022/10/08 01:47:46;;;;;;;13.43;3.58;;;;;;;11.02;100.00;101648.75;5012954;28;20022;-72
2022/10/08 01:50:27;;;;;;;11.30;3.40;;;;;;;11.06;100.00;101653.91;5011561;28;20050;-72
2022/10/08 01:52:57;;;;;;;8.70;3.33;;;;;;;11.03;100.00;101660.03;5013191;28;20104;-72
2022/10/08 01:55:36;;;;;;;7.55;3.25;;;;;;;11.01;100.00;101652.19;5011439;28;20056;-72
2022/10/08 01:58:13;;;;;;;10.73;3.05;;;;;;;10.99;100.00;101666.19;5012147;28;20069;-72
2022/10/08 02:00:41;;;;;;;10.48;2.78;;;;;;;10.87;100.00;101668.91;5012613;28;20030;-72
2022/10/08 02:03:06;;;;;;;8.90;2.78;;;;;;;10.83;100.00;101673.31;5012605;28;20040;-72
2022/10/08 02:05:36;;;;;;;11.88;2.97;;;;;;;10.72;100.00;101667.34;5011621;28;20014;-72
2022/10/08 02:08:01;;;;;;;14.50;2.80;;;;;;;10.71;100.00;101676.03;5024877;28;20029;-72
2022/10/08 02:10:27;;;;;;;8.73;2.78;;;;;;;10.67;100.00;101676.97;5012009;28;20030;-72
2022/10/08 02:12:53;;;;;;;9.43;3.00;;;;;;;10.60;100.00;101673.56;5026181;28;20478;-72
2022/10/08 02:15:30;;;;;;;10.25;3.17;;;;;;;10.54;100.00;101671.88;5018901;28;20052;-72
2022/10/08 02:18:06;;;;;;;11.00;2.53;;;;;;;10.47;100.00;101665.00;5014745;28;20044;-72
2022/10/08 02:20:39;;;;;;;11.73;3.58;;;;;;;10.45;100.00;101669.34;5010609;28;20422;-72
2022/10/08 02:23:28;;;;;;;10.07;2.70;;;;;;;10.41;100.00;101666.81;5009952;28;20089;-72
2022/10/08 02:25:58;;;;;;;8.75;2.97;;;;;;;10.38;100.00;101667.69;4998492;28;20465;-72
2022/10/08 02:28:48;;;;;;;12.75;3.30;;;;;;;10.33;100.00;101669.47;5010314;28;20022;-72
2022/10/08 02:31:51;;;;;;;11.63;3.72;;;;;;;10.30;100.00;101672.13;5012062;28;20113;-72
2022/10/08 02:34:34;;;;;;;8.73;2.90;;;;;;;10.27;100.00;101683.44;5011878;28;20037;-73
2022/10/08 02:37:05;;;;;;;11.70;3.13;;;;;;;10.25;100.00;101684.28;5006907;28;20030;-73
2022/10/08 02:39:33;;;;;;;12.32;3.00;;;;;;;10.21;100.00;101682.59;5010245;28;20029;-73
2022/10/08 02:42:02;;;;;;;10.02;3.25;;;;;;;10.20;100.00;101681.72;5012164;28;20040;-73
2022/10/08 02:44:42;;;;;;;12.55;3.10;;;;;;;10.17;100.00;101671.31;5011645;28;20072;-73
2022/10/08 02:47:13;;;;;;;10.43;3.22;;;;;;;10.13;100.00;101668.75;5011557;28;20551;-73
2022/10/08 02:49:43;;;;;;;11.95;3.10;;;;;;;10.13;100.00;101681.78;4998368;28;20042;-73
2022/10/08 02:52:10;;;;;;;8.65;3.13;;;;;;;10.11;100.00;101668.78;5012210;28;20061;-72
2022/10/08 02:54:40;;;;;;;9.77;2.97;;;;;;;10.08;100.00;101668.78;5010942;28;20030;-72
2022/10/08 02:57:22;;;;;;;11.43;3.30;;;;;;;10.06;100.00;101674.00;5011595;28;20061;-73
2022/10/08 02:59:49;;;;;;;10.48;2.80;;;;;;;10.02;100.00;101663.63;4998550;28;20389;-73
2022/10/08 03:02:26;;;;;;;8.95;3.10;;;;;;;10.01;100.00;101667.97;5011164;28;20038;-72
2022/10/08 03:05:01;;;;;;;7.65;3.20;;;;;;;9.92;100.00;101657.63;5011860;28;20424;-73
2022/10/08 03:07:30;;;;;;;11.82;3.28;;;;;;;10.00;100.00;101674.03;5010905;28;20029;-73
2022/10/08 03:09:57;;;;;;;9.07;2.83;;;;;;;9.93;100.00;101658.50;5011945;28;20527;-72
2022/10/08 03:12:24;;;;;;;5.55;3.10;;;;;;;9.97;100.00;101665.41;5011677;28;20022;-73
2022/10/08 03:14:51;;;;;;;12.25;3.33;;;;;;;9.85;100.00;101663.75;5010228;28;20029;-72
2022/10/08 03:17:23;;;;;;;10.30;3.67;;;;;;;9.88;100.00;101666.34;5012238;28;20029;-73
2022/10/08 03:19:49;;;;;;;11.30;3.30;;;;;;;9.99;100.00;101684.50;5012087;28;20022;-73
2022/10/08 03:22:15;;;;;;;5.93;3.38;;;;;;;9.97;100.00;101675.81;5011316;28;20041;-73
2022/10/08 03:24:40;;;;;;;9.60;3.50;;;;;;;9.99;100.00;101687.09;5008134;28;20022;-73
2022/10/08 03:27:05;;;;;;;11.40;3.45;;;;;;;9.94;100.00;101686.25;5016462;28;20041;-72
2022/10/08 03:29:31;;;;;;;9.48;3.47;;;;;;;9.90;100.00;101674.13;5021073;28;20473;-73
2022/10/08 03:31:56;;;;;;;7.57;3.92;;;;;;;9.93;100.00;101680.19;5011588;28;20065;-72
2022/10/08 03:34:23;;;;;;;10.75;3.78;;;;;;;9.96;100.00;101695.78;5011063;28;20054;-73
2022/10/08 03:36:49;;;;;;;9.93;3.53;;;;;;;9.96;100.00;101697.53;5013745;28;20030;-73
2022/10/08 03:39:14;;;;;;;10.27;3.47;;;;;;;9.95;100.00;101701.03;5011832;28;20105;-72
2022/10/08 03:41:39;;;;;;;9.07;3.70;;;;;;;9.90;100.00;101694.97;5011056;28;20398;-73
2022/10/08 03:44:09;;;;;;;9.55;3.38;;;;;;;9.92;100.00;101709.72;5010849;28;20097;-72
2022/10/08 03:46:34;;;;;;;9.82;3.40;;;;;;;9.86;100.00;101709.75;5011271;28;20022;-72
2022/10/08 03:49:00;;;;;;;10.50;3.25;;;;;;;9.80;100.00;101712.41;5010692;28;20493;-72
2022/10/08 03:51:25;;;;;;;8.70;3.65;;;;;;;9.71;100.00;101708.13;5010462;28;20476;-72
2022/10/08 03:53:50;;;;;;;10.27;3.50;;;;;;;9.58;100.00;101696.03;5011582;28;20029;-72
2022/10/08 03:56:23;;;;;;;8.25;3.38;;;;;;;9.59;100.00;101713.41;5011743;28;20029;-72
2022/10/08 03:58:57;;;;;;;7.85;3.63;;;;;;;9.53;100.00;101713.44;5005134;28;20122;-72
2022/10/08 04:01:23;;;;;;;11.38;3.65;;;;;;;9.43;100.00;101711.75;5010630;28;20028;-72
2022/10/08 04:03:49;;;;;;;9.90;3.55;;;;;;;9.43;100.00;101711.75;5013741;28;20038;-72
2022/10/08 04:06:15;;;;;;;8.10;3.88;;;;;;;9.37;100.00;101717.84;5011195;28;20022;-73
2022/10/08 04:08:40;;;;;;;10.80;4.22;;;;;;;9.24;100.00;101690.16;5010969;28;20167;-73
2022/10/08 04:11:13;;;;;;;12.50;4.60;;;;;;;9.28;100.00;101718.72;5010091;28;20022;-73
2022/10/08 04:13:38;;;;;;;15.43;5.18;;;;;;;9.28;100.00;101723.94;5010126;28;20116;-72
2022/10/08 04:16:06;;;;;;;14.27;5.43;;;;;;;9.31;100.00;101720.47;5011259;28;20593;-72
2022/10/08 04:18:32;;;;;;;12.10;6.10;;;;;;;9.42;100.00;101728.22;5011675;28;20033;-73
2022/10/08 04:20:59;;;;;;;13.00;5.97;;;;;;;9.47;100.00;101724.72;5014373;28;20029;-72
2022/10/08 04:23:25;;;;;;;15.63;6.40;;;;;;;9.55;100.00;101728.19;5013623;28;20029;-73
2022/10/08 04:25:51;;;;;;;16.13;7.13;;;;;;;9.61;100.00;101722.94;5013758;28;20358;-72
2022/10/08 04:28:17;;;;;;;17.88;8.45;;;;;;;9.59;100.00;101711.66;5013778;28;20377;-72
2022/10/08 04:30:52;;;;;;;27.73;10.38;;;;;;;9.62;100.00;101708.19;5013881;28;20022;-72
2022/10/08 04:33:18;;;;;;;19.75;12.23;;;;;;;9.77;100.00;101722.84;5012485;28;20545;-72
2022/10/08 04:35:43;;;;;;;31.35;16.25;;;;;;;9.82;100.00;101731.50;5013606;28;20113;-72
2022/10/08 04:38:08;;;;;;;30.48;16.08;;;;;;;9.88;100.00;101734.06;5014602;28;20484;-72
2022/10/08 04:40:34;;;;;;;35.45;18.25;;;;;;;9.92;100.00;101738.38;5012775;28;20014;-72
2022/10/08 04:42:59;;;;;;;37.63;20.40;;;;;;;9.99;100.00;101747.00;5013443;28;20046;-71
2022/10/08 04:45:24;;;;;;;46.78;22.05;;;;;;;10.03;100.00;101741.75;5013758;28;20052;-72
2022/10/08 04:47:49;;;;;;;49.08;23.90;;;;;;;10.06;100.00;101746.09;5013257;28;20034;-71
2022/10/08 04:50:15;;;;;;;68.32;27.83;;;;;;;10.13;100.00;101749.50;5012512;28;20195;-71
2022/10/08 04:52:40;;;;;;;55.60;26.70;;;;;;;10.15;100.00;101755.59;5012621;28;20041;-72
2022/10/08 04:55:06;;;;;;;65.85;29.65;;;;;;;10.18;100.00;101764.25;5012607;28;20111;-72
2022/10/08 04:57:31;;;;;;;64.03;29.80;;;;;;;10.13;100.00;101757.34;5012320;28;20480;-72
2022/10/08 04:59:56;;;;;;;63.03;29.42;;;;;;;10.21;100.00;101764.22;5013397;28;20036;-72
2022/10/08 05:02:22;;;;;;;68.15;29.33;;;;;;;10.20;100.00;101764.22;5016097;28;20473;-72
2022/10/08 05:04:47;;;;;;;70.50;31.33;;;;;;;10.21;100.00;101772.03;5013298;28;20543;-72
2022/10/08 05:07:12;;;;;;;69.88;31.20;;;;;;;9.90;100.00;101721.88;5016531;28;20038;-72
2022/10/08 05:09:38;;;;;;;68.88;32.08;;;;;;;10.27;100.00;101781.59;5013145;28;20022;-72
2022/10/08 05:12:03;;;;;;;70.97;29.90;;;;;;;10.23;100.00;101772.03;5014114;28;20049;-72
2022/10/08 05:14:28;;;;;;;72.72;31.27;;;;;;;10.19;100.00;101767.72;5011667;28;20417;-72
2022/10/08 05:16:53;;;;;;;71.95;31.15;;;;;;;10.22;100.00;101788.53;5013989;28;20406;-72
2022/10/08 05:19:19;;;;;;;67.20;30.85;;;;;;;10.19;100.00;101784.22;5013613;28;20036;-72
2022/10/08 05:21:44;;;;;;;63.28;31.02;;;;;;;10.08;100.00;101767.81;5012639;28;20022;-72
2022/10/08 05:24:10;;;;;;;73.65;32.25;;;;;;;10.06;100.00;101777.34;5013679;28;20029;-72
2022/10/08 05:26:39;;;;;;;69.97;32.70;;;;;;;10.07;100.00;101785.19;5013250;28;20117;-72
2022/10/08 05:29:05;;;;;;;70.40;34.17;;;;;;;10.09;100.00;101783.41;5013075;28;20080;-72
2022/10/08 05:31:31;;;;;;;70.95;32.90;;;;;;;10.11;100.00;101787.75;5012166;28;20017;-72
2022/10/08 05:33:58;;;;;;;77.13;33.25;;;;;;;10.12;100.00;101784.28;5013571;28;20080;-72
2022/10/08 05:36:29;;;;;;;72.25;32.63;;;;;;;10.11;100.00;101795.59;5012110;28;20087;-72
2022/10/08 05:38:55;;;;;;;84.57;34.75;;;;;;;10.04;100.00;101790.41;5013538;28;20030;-72
2022/10/08 05:41:24;;;;;;;76.82;34.38;;;;;;;10.11;100.00;101806.00;5012832;28;20489;-72
2022/10/08 05:43:50;;;;;;;77.93;33.95;;;;;;;10.12;100.00;101807.72;5012648;28;20029;-72
2022/10/08 05:46:16;;;;;;;89.65;35.70;;;;;;;10.06;100.00;101798.19;5013137;28;20030;-72
2022/10/08 05:48:42;;;;;;;88.50;35.47;;;;;;;10.15;100.00;101808.56;5011999;28;20041;-72
2022/10/08 05:51:16;;;;;;;84.75;35.90;;;;;;;10.16;100.00;101814.63;5012385;28;20044;-72
2022/10/08 05:53:45;;;;;;;90.82;37.65;;;;;;;10.14;100.00;101816.41;5012409;28;20037;-71
2022/10/08 05:56:12;;;;;;;96.80;37.22;;;;;;;10.17;100.00;101813.75;5013185;28;20048;-72
2022/10/08 05:58:38;;;;;;;90.40;36.78;;;;;;;10.19;100.00;101830.25;5012144;28;20025;-72
2022/10/08 06:01:19;;;;;;;94.13;36.65;;;;;;;10.18;100.00;101833.75;5012908;28;20029;-72
2022/10/08 06:03:48;;;;;;;88.50;36.08;;;;;;;10.13;100.00;101835.50;5009985;28;20063;-72
2022/10/08 06:06:13;;;;;;;91.15;37.53;;;;;;;10.07;100.00;101834.69;5013027;28;20018;-72
2022/10/08 06:08:40;;;;;;;83.60;35.70;;;;;;;9.98;100.00;101836.47;5012473;28;20029;-72
2022/10/08 06:11:05;;;;;;;89.65;35.38;;;;;;;9.96;100.00;101835.59;5012212;28;20030;-72
2022/10/08 06:13:31;;;;;;;85.32;34.65;;;;;;;9.86;100.00;101832.16;5012203;28;20021;-72
2022/10/08 06:16:08;;;;;;;95.63;37.50;;;;;;;9.93;100.00;101844.28;5012675;28;20025;-72
2022/10/08 06:18:35;;;;;;;91.22;36.08;;;;;;;9.92;100.00;101852.97;5011740;28;20024;-72
2022/10/08 06:21:06;;;;;;;87.13;35.47;;;;;;;9.81;100.00;101844.38;5011865;28;20026;-71
2022/10/08 06:23:32;;;;;;;94.28;37.72;;;;;;;9.90;100.00;101857.31;5012139;28;20389;-72
2022/10/08 06:26:05;;;;;;;94.55;36.80;;;;;;;9.93;100.00;101864.25;5011877;28;20072;-72
2022/10/08 06:28:32;;;;;;;93.38;37.72;;;;;;;9.88;100.00;101856.47;4999079;28;20034;-72
2022/10/08 06:30:58;;;;;;;98.30;37.63;;;;;;;9.91;100.00;101859.06;5012837;28;20206;-72
2022/10/08 06:33:24;;;;;;;90.03;36.63;;;;;;;9.91;100.00;101873.81;5011150;28;20097;-72
2022/10/08 06:35:49;;;;;;;88.88;36.33;;;;;;;9.85;100.00;101883.41;5012343;28;20034;-72
2022/10/08 06:38:14;;;;;;;86.93;36.65;;;;;;;9.79;100.00;101877.34;5011688;28;20033;-72
2022/10/08 06:40:40;;;;;;;92.20;35.75;;;;;;;9.81;100.00;101886.03;5010161;28;20476;-72
2022/10/08 06:43:06;;;;;;;95.07;36.63;;;;;;;9.77;100.00;101885.16;5012262;28;20042;-71
2022/10/08 06:45:36;;;;;;;89.90;35.45;;;;;;;9.75;100.00;101899.94;5011039;28;20377;-72
2022/10/08 06:48:01;;;;;;;82.72;34.65;;;;;;;9.75;100.00;101899.94;5021091;28;20116;-71
2022/10/08 06:50:26;;;;;;;98.63;36.13;;;;;;;9.82;100.00;101903.38;5014878;28;20588;-72
2022/10/08 06:52:52;;;;;;;92.72;37.80;;;;;;;9.99;100.00;101912.00;5011332;28;20026;-71
2022/10/08 06:55:17;;;;;;;95.60;37.70;;;;;;;10.11;100.00;101907.63;5011325;28;20102;-72
2022/10/08 06:57:42;;;;;;;93.00;37.40;;;;;;;10.19;100.00;101921.47;5011667;28;20034;-71
2022/10/08 07:00:08;;;;;;;89.28;34.28;;;;;;;10.22;100.00;101924.06;5011629;28;20022;-71
2022/10/08 07:02:34;;;;;;;84.82;33.42;;;;;;;10.17;100.00;101918.00;5011469;28;20079;-71
2022/10/08 07:04:59;;;;;;;78.15;34.08;;;;;;;10.25;100.00;101934.47;5012304;28;20025;-71
2022/10/08 07:07:24;;;;;;;73.30;31.00;;;;;;;10.30;100.00;101943.19;5010807;28;20030;-71
2022/10/08 07:09:49;;;;;;;82.88;31.77;;;;;;;10.35;100.00;101941.41;5012106;28;20424;-71
2022/10/08 07:12:15;;;;;;;66.85;29.70;;;;;;;10.33;100.00;101945.75;5011197;28;20091;-71
2022/10/08 07:14:40;;;;;;;62.03;28.83;;;;;;;10.31;100.00;101950.97;5010823;28;20033;-72
2022/10/08 07:17:05;;;;;;;66.05;29.38;;;;;;;10.31;100.00;101957.94;5002239;28;20479;-72
2022/10/08 07:19:30;;;;;;;60.30;26.73;;;;;;;10.28;100.00;101964.03;5007426;28;20448;-72
2022/10/08 07:21:56;;;;;;;55.80;24.33;;;;;;;10.22;100.00;101948.38;5007932;28;20029;-72
2022/10/08 07:24:21;;;;;;;54.65;24.15;;;;;;;10.29;100.00;101963.13;5010752;28;20119;-72
2022/10/08 07:26:46;;;;;;;55.35;23.88;;;;;;;10.28;100.00;101963.16;5011778;28;20038;-71
2022/10/08 07:29:13;;;;;;;47.90;23.50;;;;;;;10.31;100.00;101977.03;5011344;28;20026;-72
2022/10/08 07:31:39;;;;;;;48.97;22.00;;;;;;;10.31;100.00;101971.81;5007713;28;20029;-71
2022/10/08 07:34:08;;;;;;;47.13;22.02;;;;;;;10.32;100.00;101980.50;5011309;28;20041;-72
2022/10/08 07:36:34;;;;;;;49.97;21.50;;;;;;;10.32;100.00;101981.38;5010494;28;20026;-72
2022/10/08 07:39:03;;;;;;;41.40;21.00;;;;;;;10.32;100.00;101986.59;5002088;28;20026;-71
2022/10/08 07:41:32;;;;;;;46.83;20.77;;;;;;;10.39;100.00;101989.16;5001502;28;20022;-72
2022/10/08 07:44:00;;;;;;;46.03;20.10;;;;;;;10.42;100.00;101989.16;5011070;28;20125;-72
2022/10/08 07:46:30;;;;;;;40.60;18.48;;;;;;;10.45;100.00;101994.34;5003545;28;20080;-72
2022/10/08 07:48:58;;;;;;;43.28;19.02;;;;;;;10.49;100.00;101994.31;5009306;28;20096;-71
2022/10/08 07:51:24;;;;;;;35.83;17.98;;;;;;;10.59;100.00;102009.94;5010082;28;20034;-72
2022/10/08 07:53:49;;;;;;;36.72;17.05;;;;;;;10.58;100.00;101995.16;5015288;28;20047;-72
2022/10/08 07:56:17;;;;;;;38.47;15.68;;;;;;;10.46;100.00;102007.41;5013252;28;20388;-71
2022/10/08 07:58:43;;;;;;;27.13;14.73;;;;;;;10.45;100.00;102005.66;5011257;28;20044;-71
2022/10/08 08:01:14;;;;;;;37.50;14.07;;;;;;;10.45;100.00;102005.66;5012205;28;20030;-71
2022/10/08 08:03:40;;;;;;;27.23;12.55;;;;;;;10.40;100.00;102002.22;5010662;28;20040;-71
2022/10/08 08:06:11;;;;;;;24.95;10.90;;;;;;;10.49;100.00;102011.72;5008168;28;20034;-71
2022/10/08 08:08:39;;;;;;;24.42;9.13;;;;;;;10.48;100.00;102023.88;5006843;28;20378;-71
2022/10/08 08:11:06;;;;;;;19.08;8.95;;;;;;;10.50;100.00;102019.56;5012956;28;20026;-71
2022/10/08 08:13:34;;;;;;;22.88;9.00;;;;;;;10.48;100.00;102018.69;5012648;28;20076;-71
2022/10/08 08:16:01;;;;;;;21.13;9.07;;;;;;;10.53;100.00;102018.69;5015035;28;20136;-71
2022/10/08 08:18:28;;;;;;;23.27;8.30;;;;;;;10.60;100.00;102030.81;5012821;28;20104;-72
2022/10/08 08:21:03;;;;;;;21.65;8.32;;;;;;;10.64;100.00;102029.91;5012963;28;20142;-71
2022/10/08 08:23:33;;;;;;;18.83;8.35;;;;;;;10.66;100.00;102030.78;5012858;28;20042;-71
2022/10/08 08:26:04;;;;;;;19.35;7.20;;;;;;;10.68;100.00;102044.66;5014296;28;20056;-71
2022/10/08 08:28:29;;;;;;;15.52;7.15;;;;;;;10.76;100.00;102047.25;5014355;28;20030;-72
2022/10/08 08:31:25;;;;;;;18.85;7.30;;;;;;;10.72;100.00;102035.94;5011484;28;20436;-71
2022/10/08 08:33:53;;;;;;;15.13;6.88;;;;;;;10.86;100.00;102055.91;5009625;28;20107;-71
2022/10/08 08:36:22;;;;;;;19.23;7.20;;;;;;;10.89;100.00;102063.69;5014305;28;20022;-72
2022/10/08 08:38:47;;;;;;;21.05;6.90;;;;;;;10.95;100.00;102068.88;5013828;28;20022;-71
2022/10/08 08:41:36;;;;;;;16.38;7.30;;;;;;;11.02;100.00;102068.84;5009918;28;20390;-71
2022/10/08 08:44:17;;;;;;;16.73;6.13;;;;;;;11.08;100.00;102069.66;5010864;28;20061;-72
2022/10/08 08:47:29;;;;;;;18.90;6.40;;;;;;;11.13;100.00;102065.31;5013578;28;20034;-71
2022/10/08 08:50:07;;;;;;;18.30;5.70;;;;;;;11.19;100.00;102071.34;5010477;28;20045;-71
2022/10/08 08:52:39;;;;;;;14.55;5.03;;;;;;;11.30;100.00;102076.50;5013060;28;20029;-71
2022/10/08 08:55:13;;;;;;;16.63;5.03;;;;;;;11.38;100.00;102079.94;5013866;28;20130;-71
2022/10/08 08:57:41;;;;;;;10.85;4.32;;;;;;;11.45;100.00;102070.31;5012302;28;20156;-71
2022/10/08 09:00:15;;;;;;;12.35;4.10;;;;;;;11.50;100.00;102073.72;5013029;28;20036;-71
2022/10/08 09:03:01;;;;;;;8.65;3.47;;;;;;;11.57;100.00;102085.00;5003631;28;20038;-71
2022/10/08 09:05:30;;;;;;;8.05;3.15;;;;;;;11.58;100.00;102086.75;5002948;28;20486;-71
2022/10/08 09:08:06;;;;;;;5.68;2.00;;;;;;;11.61;100.00;102090.22;5006980;28;20462;-71
2022/10/08 09:10:44;;;;;;;9.02;2.38;;;;;;;11.57;100.00;102070.19;5002934;28;20127;-71
2022/10/08 09:13:18;;;;;;;7.95;2.00;;;;;;;11.73;100.00;102076.16;5003617;28;20017;-71
2022/10/08 09:15:45;;;;;;;11.73;2.03;;;;;;;11.88;100.00;102089.13;4999879;28;20049;-71
2022/10/08 09:18:13;;;;;;;8.40;1.60;;;;;;;12.00;100.00;102088.16;5006294;28;20026;-72
2022/10/08 09:20:39;;;;;;;8.88;1.80;;;;;;;12.01;100.00;102089.88;5002097;28;20125;-72
2022/10/08 09:23:13;;;;;;;8.57;1.60;;;;;;;12.20;100.00;102108.88;5008438;28;20526;-71
2022/10/08 09:25:40;;;;;;;7.80;1.77;;;;;;;12.49;100.00;102105.97;5004567;28;20041;-71
2022/10/08 09:28:06;;;;;;;8.25;1.60;;;;;;;12.63;98.15;102113.63;5009791;28;20105;-71
2022/10/08 09:30:31;;;;;;;7.43;1.40;;;;;;;12.67;95.31;102114.47;5007078;28;20101;-71
2022/10/08 09:33:15;;;;;;;6.97;1.30;;;;;;;12.75;94.09;102102.13;4999966;28;20470;-71
2022/10/08 09:35:52;;;;;;;7.85;1.45;;;;;;;13.09;97.43;102107.81;5003470;28;20319;-71
2022/10/08 09:38:22;;;;;;;8.07;1.60;;;;;;;13.12;95.04;102126.97;5007396;28;20429;-72
2022/10/08 09:41:06;;;;;;;7.25;1.50;;;;;;;13.03;97.65;102124.47;5002205;28;20021;-71
2022/10/08 09:43:33;;;;;;;6.32;1.38;;;;;;;12.87;97.75;102131.63;5005164;28;20038;-71
2022/10/08 09:46:03;;;;;;;8.13;1.60;;;;;;;12.94;93.12;102126.34;5011016;28;20028;-71
2022/10/08 09:48:29;;;;;;;6.20;1.80;;;;;;;13.19;92.51;102132.97;4998880;28;20038;-71
2022/10/08 09:51:01;;;;;;;6.10;1.25;;;;;;;13.29;93.02;102142.47;5011446;28;20029;-71
2022/10/08 09:53:32;;;;;;;6.85;1.65;;;;;;;13.45;92.07;102144.88;5012635;28;20029;-71
2022/10/08 09:56:01;;;;;;;7.63;1.65;;;;;;;13.50;88.14;102136.03;5010820;28;20065;-71
2022/10/08 09:58:31;;;;;;;6.45;1.48;;;;;;;13.57;88.81;102129.84;5012494;28;20033;-78
2022/10/08 10:01:01;;;;;;;6.80;1.48;;;;;;;13.86;88.11;102154.69;5010558;28;20030;-71
2022/10/08 10:03:27;;;;;;;11.57;1.50;;;;;;;14.14;87.21;102152.50;5011275;28;20061;-72
2022/10/08 10:05:54;;;;;;;5.20;1.48;;;;;;;14.33;85.53;102150.41;5011494;28;20061;-71
2022/10/08 10:08:51;;;;;;;5.15;1.30;;;;;;;14.41;87.31;102155.50;5012788;28;20018;-71
2022/10/08 10:11:46;;;;;;;5.55;1.40;;;;;;;14.26;88.92;102147.03;5011832;28;20082;-71
2022/10/08 10:14:39;;;;;;;8.70;1.40;;;;;;;14.08;87.73;102159.59;5007259;28;20036;-71
2022/10/08 10:17:16;;;;;;;7.25;1.40;;;;;;;13.77;88.70;102158.34;5011753;28;20026;-71
2022/10/08 10:19:58;;;;;;;7.28;1.38;;;;;;;13.40;87.47;102165.03;5010368;28;20018;-71
2022/10/08 10:22:58;;;;;;;4.18;0.95;;;;;;;13.30;88.14;102162.53;5012153;28;20531;-72
2022/10/08 10:25:37;;;;;;;5.70;1.52;;;;;;;13.41;82.66;102169.41;4985583;28;20490;-73
2022/10/08 10:28:40;;;;;;;13.60;2.15;;;;;;;13.58;86.48;102168.25;5011038;28;20049;-71
2022/10/08 10:31:32;;;;;;;4.45;1.50;;;;;;;13.91;82.83;102157.28;4972049;28;20078;-71
2022/10/08 10:34:10;;;;;;;4.68;1.20;;;;;;;14.53;83.00;102157.94;5011148;28;20018;-71
2022/10/08 10:36:42;;;;;;;4.28;1.30;;;;;;;14.86;77.07;102160.81;5011613;28;20045;-70
2022/10/08 10:39:34;;;;;;;5.25;1.20;;;;;;;14.73;77.89;102171.53;5009041;28;20017;-71
2022/10/08 10:42:11;;;;;;;7.75;1.48;;;;;;;14.68;78.72;102167.25;5008631;28;20401;-71
2022/10/08 10:44:51;;;;;;;5.68;1.25;;;;;;;14.65;79.78;102169.94;5011101;28;20030;-71
2022/10/08 10:47:20;;;;;;;3.58;1.10;;;;;;;14.70;75.97;102176.00;5007311;28;20033;-71
2022/10/08 10:49:46;;;;;;;6.88;2.00;;;;;;;14.73;72.96;102175.94;5011857;28;20068;-72
2022/10/08 10:52:32;;;;;;;7.80;1.35;;;;;;;14.88;77.04;102175.63;5003666;28;20473;-72
2022/10/08 10:55:07;;;;;;;5.70;1.27;;;;;;;14.81;71.65;102183.66;5004801;28;20390;-72
2022/10/08 10:57:35;;;;;;;5.40;1.70;;;;;;;14.45;72.06;102172.91;5009432;28;20034;-72
2022/10/08 11:00:12;;;;;;;5.90;1.15;;;;;;;14.06;74.94;102183.25;5005168;28;20099;-72
2022/10/08 11:02:45;;;;;;;6.40;1.40;;;;;;;13.81;76.80;102188.88;5007678;28;20044;-72
2022/10/08 11:05:22;;;;;;;5.25;1.35;;;;;;;14.04;78.51;102185.00;5009699;28;20034;-71
2022/10/08 11:08:04;;;;;;;3.08;1.15;;;;;;;14.55;74.58;102186.75;5008497;28;20030;-72
2022/10/08 11:11:08;;;;;;;4.82;1.20;;;;;;;15.22;74.85;102173.16;5010473;28;20483;-72
2022/10/08 11:14:05;;;;;;;4.38;1.20;;;;;;;15.70;69.87;102166.88;4955431;28;20590;-72
2022/10/08 11:16:33;;;;;;;3.15;1.00;;;;;;;16.03;68.54;102175.69;5009675;28;20460;-72
2022/10/08 11:19:01;;;;;;;7.45;1.00;;;;;;;16.23;67.76;102177.81;5002480;28;20030;-72
2022/10/08 11:22:00;;;;;;;5.85;1.27;;;;;;;16.25;70.14;102172.50;5009355;28;20394;-72
2022/10/08 11:24:54;;;;;;;5.53;1.08;;;;;;;16.38;68.02;102174.78;5010897;28;20034;-72
2022/10/08 11:27:38;;;;;;;;;;;;;;;16.54;71.09;102180.47;5012641;28;20038;-72
2022/10/08 11:30:13;;;;;;;3.50;1.30;;;;;;;17.21;67.88;102153.16;5015983;28;19921;-72
2022/10/08 11:32:44;;;;;;;6.20;1.27;;;;;;;17.18;62.51;102182.25;5012889;28;20117;-72